Time;durP1;ratioP1;P1;durP2;ratioP2;P2;SDS_P1;SDS_P2;PMS_P1;PMS_P2;Temp;Humidity;BMP_temperature;BMP_pressure;BME280_temperature;BME280_humidity;BME280_pressure;Samples;Min_cycle;Max_cycle;Signal;HPM_P1;HPM_P2
2022/07/29 00:03:03;;;;;;;7.75;2.55;;;;;;;18.00;49.08;99613.22;8460347;28;20040;-82
2022/07/29 00:07:04;;;;;;;6.13;2.10;;;;;;;17.99;49.16;99628.00;8461299;28;20043;-84
2022/07/29 00:11:05;;;;;;;4.70;1.58;;;;;;;17.94;49.08;99614.59;8454336;28;20116;-82
2022/07/29 00:15:07;;;;;;;4.70;2.00;;;;;;;17.89;49.02;99623.03;8458197;28;20525;-83
2022/07/29 00:19:08;;;;;;;10.93;2.03;;;;;;;17.88;48.95;99626.88;8457089;28;20056;-83
2022/07/29 00:23:09;;;;;;;8.35;2.05;;;;;;;17.85;49.10;99622.13;8455978;27;20040;-82
2022/07/29 00:27:09;;;;;;;5.53;1.83;;;;;;;17.80;49.30;99614.16;8462919;27;20043;-84
2022/07/29 00:31:12;;;;;;;6.25;2.13;;;;;;;17.77;49.37;99620.31;8417891;28;20058;-84
2022/07/29 00:39:32;;;;;;;8.05;2.00;;;;;;;17.68;49.52;99616.91;8477319;27;20051;-82
2022/07/29 00:43:32;;;;;;;6.18;1.75;;;;;;;17.64;49.69;99610.53;8455459;27;20134;-84
2022/07/29 00:47:33;;;;;;;6.35;2.70;;;;;;;17.61;49.53;99611.22;8469160;27;20051;-82
2022/07/29 00:51:36;;;;;;;12.27;2.20;;;;;;;17.58;49.60;99611.88;8414433;28;20047;-84
2022/07/29 00:55:37;;;;;;;7.82;2.42;;;;;;;17.55;49.70;99607.91;8477564;27;20040;-83
2022/07/29 00:59:38;;;;;;;8.98;2.28;;;;;;;17.50;49.88;99601.88;8463045;27;20059;-82
2022/07/29 01:03:39;;;;;;;8.68;2.47;;;;;;;17.44;50.34;99605.97;8469662;27;20051;-83
2022/07/29 01:07:43;;;;;;;8.45;2.15;;;;;;;17.42;50.60;99613.72;8475896;27;20082;-83
2022/07/29 01:11:44;;;;;;;11.40;2.78;;;;;;;17.36;50.89;99610.41;8426714;28;20048;-83
2022/07/29 01:15:56;;;;;;;9.05;2.40;;;;;;;17.28;50.96;99603.94;8463812;27;20068;-84
2022/07/29 01:20:09;;;;;;;4.25;2.25;;;;;;;17.23;51.16;99606.91;8442003;28;20053;-84
2022/07/29 01:24:10;;;;;;;6.45;2.50;;;;;;;17.22;51.31;99616.22;8478494;27;20051;-83
2022/07/29 01:28:17;;;;;;;6.90;2.17;;;;;;;17.21;51.34;99608.34;8469919;27;20077;-84
2022/07/29 01:32:25;;;;;;;4.05;2.00;;;;;;;17.16;51.46;99601.19;8471394;27;20043;-83
2022/07/29 01:36:33;;;;;;;19.80;2.47;;;;;;;17.11;51.57;99598.69;8452448;27;20088;-82
2022/07/29 01:40:40;;;;;;;5.80;2.40;;;;;;;17.08;51.68;99593.13;8474983;27;20132;-83
2022/07/29 01:44:56;;;;;;;11.15;2.38;;;;;;;17.04;51.82;99592.97;8464000;27;20055;-84
2022/07/29 01:49:27;;;;;;;10.38;2.67;;;;;;;17.00;52.03;99591.28;8467488;27;20060;-83
2022/07/29 01:53:35;;;;;;;5.75;2.35;;;;;;;16.96;52.28;99585.72;8470693;27;20051;-83
2022/07/29 01:57:36;;;;;;;4.35;2.53;;;;;;;16.97;52.30;99581.84;8443285;27;20448;-83
2022/07/29 02:01:39;;;;;;;8.85;2.60;;;;;;;16.95;52.27;99578.66;8467729;27;20059;-85
2022/07/29 02:05:45;;;;;;;6.65;2.22;;;;;;;16.89;52.72;99571.81;8454751;27;20047;-83
2022/07/29 02:09:47;;;;;;;6.07;2.33;;;;;;;16.83;53.07;99575.91;8381867;28;20065;-84
2022/07/29 02:13:48;;;;;;;7.60;2.30;;;;;;;16.78;53.27;99567.94;8445849;28;20050;-84
2022/07/29 02:17:55;;;;;;;10.35;2.78;;;;;;;16.72;53.54;99570.09;8439025;27;20043;-85
2022/07/29 02:21:57;;;;;;;8.50;2.65;;;;;;;16.66;53.77;99559.72;8418262;27;20039;-83
2022/07/29 02:25:59;;;;;;;6.10;2.60;;;;;;;16.64;54.08;99562.00;8453951;27;20119;-85
2022/07/29 02:30:02;;;;;;;11.45;2.40;;;;;;;16.58;54.37;99569.59;8466492;27;20070;-83
2022/07/29 02:34:07;;;;;;;6.15;2.60;;;;;;;16.55;54.58;99564.00;8458815;27;20105;-84
2022/07/29 02:42:29;;;;;;;13.05;2.72;;;;;;;16.47;55.07;99563.75;8387031;27;20047;-84
2022/07/29 02:46:35;;;;;;;7.00;2.60;;;;;;;16.44;55.13;99558.97;8429871;27;20039;-83
2022/07/29 02:50:45;;;;;;;5.53;2.35;;;;;;;16.38;55.14;99554.88;8419205;28;20048;-85
2022/07/29 02:55:15;;;;;;;11.65;3.08;;;;;;;16.31;55.68;99560.06;8436850;28;20036;-85
2022/07/29 02:59:21;;;;;;;8.88;2.83;;;;;;;16.27;55.76;99564.59;8335613;28;20536;-85
2022/07/29 03:03:31;;;;;;;7.43;2.53;;;;;;;16.22;55.98;99562.09;8322995;28;20477;-83
2022/07/29 03:07:33;;;;;;;11.07;2.85;;;;;;;16.20;56.24;99558.88;8308286;28;20111;-84
2022/07/29 03:11:35;;;;;;;6.93;2.90;;;;;;;16.17;56.26;99559.56;8311933;28;20732;-84
2022/07/29 03:15:36;;;;;;;11.02;2.50;;;;;;;16.12;56.56;99554.31;8340523;28;20068;-83
2022/07/29 03:19:38;;;;;;;6.72;2.58;;;;;;;16.11;56.63;99554.66;8302509;28;20049;-84
2022/07/29 03:23:44;;;;;;;8.23;3.00;;;;;;;16.08;56.90;99556.09;8310089;28;20049;-84
2022/07/29 03:27:46;;;;;;;6.40;2.55;;;;;;;16.05;57.10;99554.06;8337885;28;20045;-84
2022/07/29 03:31:51;;;;;;;11.45;3.58;;;;;;;16.03;57.23;99559.03;8378507;28;20070;-83
2022/07/29 03:35:51;;;;;;;8.20;2.53;;;;;;;16.01;57.62;99558.59;8432140;28;20048;-84
2022/07/29 03:39:55;;;;;;;9.40;2.60;;;;;;;16.00;57.82;99576.06;8413104;28;20052;-83
2022/07/29 03:43:56;;;;;;;8.63;2.35;;;;;;;15.99;57.97;99569.00;8419897;28;20144;-84
2022/07/29 03:48:02;;;;;;;10.80;3.20;;;;;;;15.96;57.98;99569.69;8395757;28;20051;-84
2022/07/29 03:52:04;;;;;;;6.28;2.42;;;;;;;15.93;58.20;99570.34;8433648;28;20495;-84
2022/07/29 03:56:06;;;;;;;6.70;2.65;;;;;;;15.93;58.50;99575.78;8443885;28;20056;-83
2022/07/29 04:00:08;;;;;;;5.45;2.50;;;;;;;15.93;58.59;99576.59;8459499;28;20537;-83
2022/07/29 04:04:09;;;;;;;10.63;2.75;;;;;;;15.92;58.69;99579.63;8474906;28;20044;-83
2022/07/29 04:08:10;;;;;;;8.02;2.88;;;;;;;15.90;58.73;99576.47;8436475;28;20075;-84
2022/07/29 04:12:11;;;;;;;7.07;3.00;;;;;;;15.91;59.11;99583.50;8461979;28;20192;-83
2022/07/29 04:16:12;;;;;;;11.43;2.97;;;;;;;15.91;59.41;99588.94;8460306;28;20223;-84
2022/07/29 04:20:13;;;;;;;7.07;2.65;;;;;;;15.94;59.38;99582.81;8417731;28;20055;-85
2022/07/29 04:24:17;;;;;;;12.75;2.85;;;;;;;16.00;59.41;99593.19;8385257;28;20058;-83
2022/07/29 04:28:18;;;;;;;10.27;3.03;;;;;;;16.04;59.37;99582.44;8437178;28;20052;-84
2022/07/29 04:32:18;;;;;;;8.93;2.40;;;;;;;16.14;59.33;99592.91;8460335;28;20055;-84
2022/07/29 04:36:19;;;;;;;8.25;2.85;;;;;;;16.26;59.21;99590.25;8412226;28;20040;-83
2022/07/29 04:40:20;;;;;;;10.35;2.72;;;;;;;16.38;58.94;99587.59;8428401;28;20119;-85
2022/07/29 04:44:22;;;;;;;11.40;2.70;;;;;;;16.49;58.67;99579.78;8427186;28;20040;-85
2022/07/29 04:48:22;;;;;;;5.63;2.58;;;;;;;16.62;58.77;99591.53;8434042;28;20047;-85
2022/07/29 04:52:24;;;;;;;8.02;3.13;;;;;;;16.77;58.38;99588.16;8428766;28;20052;-83
2022/07/29 04:56:25;;;;;;;5.75;2.42;;;;;;;16.94;58.20;99587.19;8432027;28;20052;-83
2022/07/29 05:00:26;;;;;;;11.02;2.50;;;;;;;17.10;58.02;99596.28;8431858;28;20039;-83
2022/07/29 05:04:27;;;;;;;7.35;2.50;;;;;;;17.24;57.66;99580.38;8429990;28;20032;-83
2022/07/29 05:08:29;;;;;;;7.95;2.50;;;;;;;17.37;57.65;99572.97;8398277;28;20143;-83
2022/07/29 05:12:30;;;;;;;10.05;2.75;;;;;;;17.53;57.40;99577.41;8433662;28;20089;-83
2022/07/29 05:16:34;;;;;;;9.00;2.47;;;;;;;17.65;57.02;99568.44;8440330;28;20054;-84
2022/07/29 05:20:35;;;;;;;5.40;2.38;;;;;;;17.80;56.76;99570.47;8442356;28;20123;-83
2022/07/29 05:24:36;;;;;;;5.70;2.40;;;;;;;17.95;56.42;99577.94;8432718;28;20059;-85
2022/07/29 05:28:37;;;;;;;10.77;2.65;;;;;;;18.13;56.26;99578.44;8434495;28;20495;-83
2022/07/29 05:32:38;;;;;;;5.97;2.38;;;;;;;18.32;55.70;99580.53;8416550;28;20048;-85
2022/07/29 05:36:39;;;;;;;6.53;2.38;;;;;;;18.41;55.51;99584.69;8434159;28;20063;-84
2022/07/29 05:40:40;;;;;;;10.15;2.60;;;;;;;18.44;55.35;99575.00;8436710;28;20044;-83
2022/07/29 05:44:41;;;;;;;5.68;2.20;;;;;;;18.40;55.28;99582.34;8433914;28;20051;-83
2022/07/29 05:48:43;;;;;;;7.60;2.65;;;;;;;18.39;55.71;99586.19;8436151;28;20059;-82
2022/07/29 05:52:44;;;;;;;12.02;3.28;;;;;;;18.35;55.97;99580.63;8440281;28;20032;-82
2022/07/29 05:56:45;;;;;;;14.45;3.08;;;;;;;18.33;56.04;99587.59;8444707;28;20048;-83
2022/07/29 06:00:46;;;;;;;7.68;2.33;;;;;;;18.29;56.35;99575.78;8448666;28;20101;-83
2022/07/29 06:04:48;;;;;;;10.02;2.42;;;;;;;18.27;56.64;99578.03;8435705;28;20906;-83
2022/07/29 06:08:49;;;;;;;7.68;2.45;;;;;;;18.30;56.63;99566.41;8424396;28;20552;-84
2022/07/29 06:12:50;;;;;;;5.93;2.30;;;;;;;18.28;56.45;99574.19;8425681;28;20040;-84
2022/07/29 06:16:51;;;;;;;5.93;2.40;;;;;;;18.30;56.44;99577.34;8433641;28;20043;-83
2022/07/29 06:20:53;;;;;;;4.38;2.15;;;;;;;18.39;56.32;99564.31;8414308;28;20036;-82
2022/07/29 06:24:54;;;;;;;8.00;2.35;;;;;;;18.51;56.21;99575.19;8436782;28;20040;-84
2022/07/29 06:28:55;;;;;;;5.15;2.40;;;;;;;18.66;55.94;99574.47;8443367;28;20433;-85
2022/07/29 06:32:56;;;;;;;7.70;2.35;;;;;;;18.83;55.97;99579.59;8435960;28;20071;-84
2022/07/29 06:36:57;;;;;;;8.13;2.15;;;;;;;18.97;55.58;99579.97;8434900;28;20082;-83
2022/07/29 06:41:09;;;;;;;8.00;2.13;;;;;;;19.16;55.24;99586.66;8407558;28;20044;-82
2022/07/29 06:45:11;;;;;;;7.55;2.22;;;;;;;19.36;55.16;99596.53;8431994;28;20040;-83
2022/07/29 06:49:13;;;;;;;5.80;2.30;;;;;;;19.49;55.31;99584.38;8430481;28;20427;-84
2022/07/29 06:53:15;;;;;;;5.38;2.10;;;;;;;19.60;54.97;99585.41;8431918;28;20761;-84
2022/07/29 06:57:15;;;;;;;4.85;2.17;;;;;;;19.67;54.02;99582.81;8404663;28;20519;-84
2022/07/29 07:01:16;;;;;;;5.13;1.90;;;;;;;19.75;54.05;99587.31;8428308;28;20040;-84
2022/07/29 07:05:17;;;;;;;5.30;2.08;;;;;;;19.91;53.69;99583.75;8433455;28;20064;-81
2022/07/29 07:09:18;;;;;;;6.65;2.20;;;;;;;20.15;53.82;99591.69;8428803;28;20056;-86
2022/07/29 07:13:19;;;;;;;8.23;2.42;;;;;;;20.24;52.89;99603.25;8431560;28;20069;-84
2022/07/29 07:17:20;;;;;;;8.35;2.58;;;;;;;20.30;52.71;99596.31;8394945;28;20052;-85
2022/07/29 07:21:21;;;;;;;8.93;2.15;;;;;;;20.44;52.70;99584.84;8401284;28;20563;-83
2022/07/29 07:25:22;;;;;;;6.70;2.00;;;;;;;20.62;52.13;99578.53;8432773;28;20040;-82
2022/07/29 07:29:23;;;;;;;6.35;1.95;;;;;;;20.78;50.96;99583.16;8429923;28;20075;-82
2022/07/29 07:33:24;;;;;;;3.80;1.67;;;;;;;20.92;50.84;99594.38;8435294;28;20055;-81
2022/07/29 07:37:25;;;;;;;6.07;1.55;;;;;;;21.12;50.10;99584.91;8435579;28;20044;-83
2022/07/29 07:41:26;;;;;;;9.90;1.98;;;;;;;21.32;49.45;99597.44;8434128;28;20407;-82
2022/07/29 07:45:27;;;;;;;4.97;1.98;;;;;;;21.38;49.11;99590.47;8428711;28;20043;-82
2022/07/29 07:49:28;;;;;;;4.05;1.50;;;;;;;21.39;48.73;99583.81;8396260;28;20415;-84
2022/07/29 07:53:30;;;;;;;5.07;1.95;;;;;;;21.37;48.98;99583.38;8431695;28;20135;-82
2022/07/29 07:57:31;;;;;;;5.85;2.00;;;;;;;21.38;48.67;99595.97;8428654;28;20044;-82
2022/07/29 08:01:32;;;;;;;9.95;2.30;;;;;;;21.36;48.43;99592.00;8388453;28;20052;-82
2022/07/29 08:05:33;;;;;;;5.03;1.80;;;;;;;21.35;48.89;99591.22;8428938;28;20103;-81
2022/07/29 08:09:34;;;;;;;3.97;1.63;;;;;;;21.39;49.29;99592.06;8438794;28;20448;-83
2022/07/29 08:13:35;;;;;;;4.30;1.80;;;;;;;21.48;49.23;99589.03;8442488;28;20052;-84
2022/07/29 08:17:39;;;;;;;6.50;1.80;;;;;;;21.57;48.71;99586.03;8433513;28;20079;-82
2022/07/29 08:21:40;;;;;;;7.65;1.80;;;;;;;21.66;48.44;99592.06;8410052;28;20044;-84
2022/07/29 08:25:41;;;;;;;13.48;2.10;;;;;;;21.74;48.08;99580.00;8425142;28;20139;-82
2022/07/29 08:29:42;;;;;;;10.10;1.70;;;;;;;21.78;47.68;99586.34;8433293;28;20044;-82
2022/07/29 08:33:44;;;;;;;7.75;1.90;;;;;;;21.90;47.78;99577.84;8436549;28;20040;-82
2022/07/29 08:37:45;;;;;;;4.28;1.52;;;;;;;22.00;48.12;99588.22;8426177;28;20044;-83
2022/07/29 08:52:52;;;;;;;9.23;2.20;;;;;;;22.13;46.83;99592.34;8411608;27;1654117;-71
2022/07/29 08:56:55;;;;;;;4.65;1.73;;;;;;;22.17;47.43;99582.16;8393056;28;20037;-72
2022/07/29 09:00:57;;;;;;;7.97;2.33;;;;;;;22.24;47.06;99586.97;8392855;28;20543;-72
2022/07/29 09:05:00;;;;;;;5.10;2.20;;;;;;;22.29;47.03;99581.94;8438508;28;20070;-72
2022/07/29 09:09:01;;;;;;;4.53;1.70;;;;;;;22.42;46.25;99576.19;8415777;28;20069;-72
2022/07/29 09:13:02;;;;;;;5.38;2.10;;;;;;;22.59;46.78;99592.06;8431784;28;20048;-72
2022/07/29 09:17:03;;;;;;;8.25;2.00;;;;;;;22.75;47.10;99581.66;8406183;28;20058;-71
2022/07/29 09:25:38;;;;;;;6.80;1.52;;;;;;;22.81;45.96;99582.91;8441711;28;20477;-72
2022/07/29 09:29:39;;;;;;;8.95;1.80;;;;;;;22.82;46.14;99584.50;8447494;28;20059;-71
2022/07/29 09:33:41;;;;;;;3.63;2.00;;;;;;;22.87;46.05;99584.16;8446311;28;20127;-72
2022/07/29 09:37:44;;;;;;;8.27;1.75;;;;;;;22.91;45.24;99573.94;8426220;28;20041;-72
2022/07/29 09:41:49;;;;;;;6.95;1.77;;;;;;;22.87;45.03;99570.38;8439559;28;20549;-71
2022/07/29 09:45:52;;;;;;;8.48;1.80;;;;;;;22.86;45.84;99574.31;8437988;28;20121;-71
2022/07/29 09:50:00;;;;;;;6.18;1.77;;;;;;;22.97;46.04;99564.16;8439718;28;20063;-72
2022/07/29 09:54:03;;;;;;;9.68;2.50;;;;;;;22.98;45.77;99565.75;8423682;28;20093;-71
2022/07/29 09:58:18;;;;;;;5.10;2.17;;;;;;;23.01;45.55;99562.22;8427352;28;20127;-71
2022/07/29 10:02:19;;;;;;;7.85;1.88;;;;;;;23.14;45.50;99563.53;8412092;28;20055;-71
2022/07/29 10:06:20;;;;;;;7.38;2.28;;;;;;;23.15;44.59;99550.56;8424416;28;20079;-71
2022/07/29 10:10:23;;;;;;;6.20;2.10;;;;;;;23.19;44.76;99564.34;8408191;28;20517;-72
2022/07/29 10:14:25;;;;;;;4.25;1.90;;;;;;;23.29;44.61;99558.13;8419989;28;20085;-72
2022/07/29 10:18:26;;;;;;;9.98;2.00;;;;;;;23.42;44.58;99551.16;8392474;28;20048;-71
2022/07/29 10:22:27;;;;;;;8.13;1.73;;;;;;;23.75;44.12;99553.72;8412920;28;20123;-72
2022/07/29 10:26:29;;;;;;;7.45;1.67;;;;;;;23.94;43.87;99545.16;8423491;28;20043;-72
2022/07/29 10:30:30;;;;;;;6.78;1.80;;;;;;;24.05;43.53;99544.41;8407375;28;20040;-71
2022/07/29 10:34:50;;;;;;;7.32;1.70;;;;;;;24.12;43.34;99539.69;8415724;28;20142;-72
2022/07/29 10:39:04;;;;;;;7.43;1.67;;;;;;;24.45;43.09;99538.66;8423864;28;20055;-72
2022/07/29 10:43:23;;;;;;;4.53;1.88;;;;;;;24.82;41.96;99533.59;8418815;28;20044;-72
2022/07/29 10:47:26;;;;;;;4.93;1.80;;;;;;;25.16;41.20;99536.00;8416546;28;20044;-72
2022/07/29 10:52:02;;;;;;;2.97;1.70;;;;;;;25.02;40.79;99535.97;8419996;28;20051;-72
2022/07/29 10:56:03;;;;;;;3.95;1.50;;;;;;;24.78;41.05;99532.81;8409457;28;20048;-72
2022/07/29 11:00:10;;;;;;;10.18;1.70;;;;;;;24.83;40.78;99518.59;8407498;28;20040;-72
2022/07/29 11:04:11;;;;;;;4.25;1.50;;;;;;;24.88;41.16;99530.47;8417562;28;20048;-71
2022/07/29 11:08:20;;;;;;;4.80;1.70;;;;;;;25.00;41.56;99530.06;8379451;28;20043;-72
2022/07/29 11:12:36;;;;;;;7.68;1.80;;;;;;;25.09;41.28;99531.25;8417473;28;20054;-73
2022/07/29 11:17:00;;;;;;;5.30;1.70;;;;;;;25.10;41.37;99526.53;8417427;28;20097;-73
2022/07/29 11:21:01;;;;;;;10.10;1.98;;;;;;;25.30;41.49;99524.91;8412711;28;20036;-73
2022/07/29 11:25:18;;;;;;;6.88;1.80;;;;;;;25.40;40.37;99518.56;8412219;28;20502;-71
2022/07/29 11:29:20;;;;;;;9.82;1.95;;;;;;;25.44;40.59;99518.56;8413683;28;20040;-71
2022/07/29 11:33:32;;;;;;;7.32;2.40;;;;;;;25.50;40.45;99517.75;8414944;28;20052;-71
2022/07/29 11:37:32;;;;;;;13.93;2.50;;;;;;;25.35;40.30;99516.22;8402852;28;20062;-72
2022/07/29 11:41:36;;;;;;;8.70;1.80;;;;;;;25.24;40.47;99520.97;8416060;28;20050;-72
2022/07/29 11:45:47;;;;;;;4.60;1.67;;;;;;;25.36;41.03;99525.31;8401923;28;20045;-72
2022/07/29 11:49:49;;;;;;;6.80;2.15;;;;;;;25.41;40.73;99525.69;8413169;28;20127;-71
2022/07/29 11:53:53;;;;;;;8.30;1.67;;;;;;;25.78;40.91;99521.66;8393813;28;20088;-71
2022/07/29 11:57:59;;;;;;;10.43;2.22;;;;;;;25.72;40.53;99520.50;8382729;28;20512;-71
2022/07/29 12:02:00;;;;;;;8.32;2.25;;;;;;;25.69;40.30;99518.53;8416118;28;20102;-73
2022/07/29 12:06:02;;;;;;;6.82;2.03;;;;;;;25.72;40.72;99517.72;8413871;28;20044;-74
2022/07/29 12:10:06;;;;;;;8.20;2.25;;;;;;;25.69;40.50;99507.47;8367639;28;20056;-73
2022/07/29 12:14:08;;;;;;;11.18;2.22;;;;;;;25.76;40.69;99507.44;8379370;28;20055;-73
2022/07/29 12:18:14;;;;;;;8.32;2.30;;;;;;;25.86;40.78;99501.06;8405463;28;20056;-73
2022/07/29 12:22:25;;;;;;;6.97;2.00;;;;;;;26.03;40.88;99494.69;8409965;28;20047;-73
2022/07/29 12:26:26;;;;;;;12.50;2.35;;;;;;;26.12;40.92;99497.78;8417436;28;20064;-73
2022/07/29 12:30:42;;;;;;;5.20;1.90;;;;;;;26.10;40.70;99507.69;8410790;28;20070;-73
2022/07/29 12:34:43;;;;;;;9.25;2.38;;;;;;;25.98;40.21;99498.66;8401554;28;20124;-74
2022/07/29 12:38:44;;;;;;;6.40;2.38;;;;;;;26.12;40.47;99492.25;8417547;28;20059;-73
2022/07/29 12:43:17;;;;;;;8.40;2.03;;;;;;;26.67;40.41;99486.00;8405811;28;20052;-73
2022/07/29 12:47:19;;;;;;;7.95;2.38;;;;;;;26.90;39.71;99480.72;8409300;28;20309;-73
2022/07/29 12:51:31;;;;;;;10.40;2.20;;;;;;;27.00;39.21;99476.25;8407736;28;20055;-73
2022/07/29 12:55:40;;;;;;;10.77;2.30;;;;;;;26.91;39.10;99476.75;8409301;28;20048;-73
2022/07/29 12:59:41;;;;;;;12.88;2.50;;;;;;;27.43;39.25;99462.75;8364566;28;20131;-73
2022/07/29 13:04:00;;;;;;;7.78;2.20;;;;;;;27.69;38.24;99471.19;8406783;28;20063;-73
2022/07/29 13:08:15;;;;;;;13.60;2.72;;;;;;;27.51;38.42;99458.72;8403721;28;20109;-73
2022/07/29 13:12:16;;;;;;;5.03;2.30;;;;;;;27.24;38.95;99459.38;8408672;28;20044;-73
2022/07/29 13:16:17;;;;;;;4.57;2.47;;;;;;;27.11;39.09;99452.78;8401582;28;20047;-74
2022/07/29 13:20:18;;;;;;;8.32;2.33;;;;;;;27.07;39.79;99454.78;8368908;28;20505;-74
2022/07/29 13:24:19;;;;;;;10.95;2.40;;;;;;;27.05;39.70;99443.34;8404960;28;20049;-73
2022/07/29 13:28:21;;;;;;;8.45;2.53;;;;;;;26.93;39.11;99441.06;8394406;28;20040;-74
2022/07/29 13:32:22;;;;;;;6.10;2.25;;;;;;;26.92;39.05;99439.50;8405092;28;20509;-73
2022/07/29 13:36:23;;;;;;;5.10;2.35;;;;;;;27.05;39.03;99434.25;8415491;28;20052;-73
2022/07/29 13:40:25;;;;;;;16.45;8.02;;;;;;;27.95;37.74;99421.69;8411666;28;20045;-73
2022/07/29 13:44:26;;;;;;;110.90;46.95;;;;;;;29.16;35.86;99415.00;8419340;28;20052;-73
2022/07/29 13:48:26;;;;;;;68.18;29.77;;;;;;;28.92;35.97;99412.25;8404786;28;20135;-74
2022/07/29 13:52:28;;;;;;;50.67;25.10;;;;;;;29.10;35.18;99397.22;8398929;28;20127;-73
2022/07/29 13:56:29;;;;;;;88.10;36.38;;;;;;;28.25;36.46;99409.78;8421691;28;20396;-74
2022/07/29 14:00:31;;;;;;;7.15;3.17;;;;;;;28.39;36.44;99412.34;8399347;28;20044;-74
2022/07/29 14:04:32;;;;;;;8.05;2.70;;;;;;;29.35;35.69;99417.03;8388564;28;20501;-74
2022/07/29 14:08:33;;;;;;;30.42;9.88;;;;;;;29.78;35.33;99422.50;8413705;28;20047;-73
2022/07/29 14:12:34;;;;;;;9.30;3.20;;;;;;;28.67;35.66;99422.97;8410918;28;20054;-74
2022/07/29 14:16:35;;;;;;;12.32;3.63;;;;;;;28.13;36.60;99411.94;8416942;28;20036;-73
2022/07/29 14:20:36;;;;;;;10.15;4.95;;;;;;;27.77;37.71;99410.84;8416405;28;20539;-74
2022/07/29 14:24:40;;;;;;;14.93;4.22;;;;;;;27.53;37.33;99414.72;8426756;28;20431;-74
2022/07/29 14:28:41;;;;;;;13.85;4.55;;;;;;;27.20;38.26;99405.97;8410681;28;20101;-73
2022/07/29 14:32:42;;;;;;;9.98;2.85;;;;;;;27.08;39.04;99409.25;8401628;28;20487;-73
2022/07/29 14:36:43;;;;;;;7.15;2.90;;;;;;;26.96;39.26;99412.56;8406097;28;20123;-74
2022/07/29 14:40:46;;;;;;;11.32;4.03;;;;;;;26.85;39.47;99395.22;8410520;28;20044;-74
2022/07/29 14:44:47;;;;;;;8.45;3.53;;;;;;;26.66;39.68;99409.63;8418338;28;20052;-74
2022/07/29 14:48:49;;;;;;;9.73;2.50;;;;;;;26.56;40.22;99407.75;8384695;28;20688;-75
2022/07/29 14:52:50;;;;;;;6.43;2.65;;;;;;;26.52;40.29;99405.00;8404905;28;20476;-73
2022/07/29 14:56:54;;;;;;;5.55;2.72;;;;;;;26.89;39.45;99407.09;8383163;28;20056;-73
2022/07/29 15:00:58;;;;;;;8.50;2.88;;;;;;;27.59;38.14;99393.66;8401392;28;20126;-74
2022/07/29 15:04:59;;;;;;;5.53;2.60;;;;;;;28.11;37.49;99392.13;8403870;28;20052;-74
2022/07/29 15:09:00;;;;;;;8.45;3.25;;;;;;;27.60;38.53;99395.22;8414668;28;20562;-74
2022/07/29 15:13:01;;;;;;;7.28;2.95;;;;;;;27.11;38.74;99388.25;8415618;28;20052;-74
2022/07/29 15:17:02;;;;;;;5.13;2.72;;;;;;;26.76;39.74;99392.13;8401390;28;20037;-74
2022/07/29 15:21:06;;;;;;;13.07;3.42;;;;;;;27.00;39.57;99380.03;8401681;28;20099;-74
2022/07/29 15:25:08;;;;;;;11.70;3.58;;;;;;;27.15;39.18;99381.47;8409105;28;20048;-73
2022/07/29 15:29:09;;;;;;;14.02;3.40;;;;;;;26.67;39.73;99366.88;8414332;28;20052;-74
2022/07/29 15:33:10;;;;;;;9.00;3.05;;;;;;;26.14;40.21;99368.09;8427366;28;20568;-74
2022/07/29 15:37:11;;;;;;;6.88;3.15;;;;;;;25.98;40.69;99365.03;8410069;28;20089;-74
2022/07/29 15:41:15;;;;;;;12.27;3.35;;;;;;;26.18;40.53;99363.31;8396622;28;20500;-74
2022/07/29 15:45:16;;;;;;;12.73;4.03;;;;;;;26.57;39.48;99365.00;8414422;28;20506;-74
2022/07/29 15:49:17;;;;;;;8.40;3.00;;;;;;;26.60;39.87;99361.41;8376933;28;20132;-74
2022/07/29 15:53:18;;;;;;;7.15;3.05;;;;;;;26.51;39.96;99363.88;8429388;28;20044;-74
2022/07/29 15:57:19;;;;;;;7.93;2.67;;;;;;;26.47;40.02;99359.16;8430222;28;20086;-74
2022/07/29 16:01:20;;;;;;;15.20;3.40;;;;;;;26.32;40.73;99352.19;8419132;28;20045;-74
2022/07/29 16:05:22;;;;;;;8.57;3.05;;;;;;;26.11;40.60;99351.53;8396611;28;20071;-74
2022/07/29 16:09:24;;;;;;;5.05;2.53;;;;;;;25.93;40.73;99341.34;8395163;28;20542;-74
2022/07/29 16:13:25;;;;;;;12.10;3.83;;;;;;;25.78;40.98;99350.94;8407370;28;20098;-74
2022/07/29 16:17:26;;;;;;;7.43;2.67;;;;;;;25.82;41.48;99346.16;8412739;28;20130;-74
2022/07/29 16:21:27;;;;;;;5.22;2.80;;;;;;;25.77;41.68;99348.56;8394538;28;20040;-73
2022/07/29 16:25:28;;;;;;;10.65;3.25;;;;;;;25.71;41.44;99350.97;8394676;28;20049;-76
2022/07/29 16:29:29;;;;;;;6.45;2.72;;;;;;;25.74;41.61;99338.34;8427789;28;20410;-75
2022/07/29 16:33:30;;;;;;;13.63;3.92;;;;;;;25.75;41.55;99339.91;8411334;28;20130;-74
2022/07/29 16:37:34;;;;;;;10.30;3.50;;;;;;;25.71;41.65;99339.13;8396778;28;20110;-74
2022/07/29 16:41:35;;;;;;;18.75;4.38;;;;;;;25.57;41.50;99340.78;8401365;28;20048;-74
2022/07/29 16:45:36;;;;;;;8.00;3.42;;;;;;;25.45;41.92;99343.19;8381098;28;20047;-74
2022/07/29 16:49:37;;;;;;;8.55;3.20;;;;;;;25.32;41.94;99345.63;8403255;28;20517;-74
2022/07/29 16:53:38;;;;;;;10.07;2.60;;;;;;;25.22;42.08;99352.00;8393718;28;20044;-74
2022/07/29 16:57:41;;;;;;;13.48;2.92;;;;;;;25.10;42.80;99344.13;8410586;28;20506;-74
2022/07/29 17:01:42;;;;;;;7.38;3.70;;;;;;;25.01;42.64;99343.78;8377976;28;20052;-73
2022/07/29 17:05:43;;;;;;;12.70;4.20;;;;;;;25.01;42.83;99335.50;8409365;28;20082;-74
2022/07/29 17:09:44;;;;;;;11.55;3.15;;;;;;;24.95;42.42;99343.41;8394072;28;20422;-74
2022/07/29 17:13:45;;;;;;;14.00;2.90;;;;;;;24.81;42.92;99333.13;8424782;28;20059;-74
2022/07/29 17:17:46;;;;;;;7.20;2.65;;;;;;;24.69;43.29;99336.31;8400482;28;20055;-74
2022/07/29 17:21:47;;;;;;;6.78;2.90;;;;;;;24.60;43.67;99344.22;8401180;28;20059;-74
2022/07/29 17:25:48;;;;;;;8.70;4.00;;;;;;;24.45;43.64;99331.59;8420392;28;20558;-74
2022/07/29 17:29:49;;;;;;;6.78;3.00;;;;;;;24.34;43.73;99333.59;8407481;28;20059;-74
2022/07/29 17:33:50;;;;;;;18.00;4.60;;;;;;;24.27;43.91;99325.31;8411824;28;20113;-74
2022/07/29 17:37:53;;;;;;;6.53;2.70;;;;;;;24.16;44.38;99330.03;8415937;28;20052;-73
2022/07/29 17:41:54;;;;;;;5.18;3.20;;;;;;;24.08;44.27;99333.94;8399723;28;20502;-73
2022/07/29 17:45:55;;;;;;;9.38;3.10;;;;;;;24.05;44.50;99341.06;8417362;28;20048;-74
2022/07/29 17:49:56;;;;;;;10.95;4.07;;;;;;;23.97;44.98;99340.25;8406496;28;20058;-74
2022/07/29 17:53:57;;;;;;;11.20;3.70;;;;;;;23.91;45.09;99338.25;8414759;28;20053;-74
2022/07/29 17:57:58;;;;;;;7.88;3.92;;;;;;;23.83;45.62;99334.72;8411391;28;20082;-73
2022/07/29 18:01:59;;;;;;;12.27;5.63;;;;;;;23.72;45.62;99333.91;8414000;28;20052;-73
2022/07/29 18:06:00;;;;;;;10.60;5.30;;;;;;;23.61;46.15;99333.09;8374039;28;20129;-73
2022/07/29 18:10:01;;;;;;;6.80;3.42;;;;;;;23.52;46.16;99329.94;8380449;28;20040;-74
2022/07/29 18:14:04;;;;;;;6.38;3.28;;;;;;;23.48;46.45;99334.63;8405638;28;20128;-74
2022/07/29 18:18:06;;;;;;;8.30;3.28;;;;;;;23.45;46.54;99340.88;8374164;28;20127;-74
2022/07/29 18:22:08;;;;;;;9.02;3.45;;;;;;;23.39;46.44;99347.94;8419440;28;20131;-73
2022/07/29 18:26:10;;;;;;;9.80;4.50;;;;;;;23.34;46.98;99343.59;8421811;28;20056;-74
2022/07/29 18:30:11;;;;;;;10.20;4.28;;;;;;;23.30;46.98;99351.06;8415371;28;20126;-73
2022/07/29 18:34:12;;;;;;;9.48;2.80;;;;;;;23.26;46.31;99357.75;8406013;28;20462;-73
2022/07/29 18:38:13;;;;;;;6.20;2.25;;;;;;;23.25;46.27;99358.94;8404830;28;20059;-73
2022/07/29 18:42:14;;;;;;;8.30;2.15;;;;;;;23.22;46.08;99356.94;8413272;28;20054;-73
2022/07/29 18:46:15;;;;;;;9.95;2.67;;;;;;;23.14;45.87;99362.44;8416589;28;20044;-73
2022/07/29 18:50:18;;;;;;;9.23;2.70;;;;;;;23.12;45.81;99362.00;8398993;28;20144;-73
2022/07/29 18:54:19;;;;;;;7.88;2.30;;;;;;;23.09;45.64;99362.78;8410438;28;20095;-73
2022/07/29 18:58:20;;;;;;;10.95;2.60;;;;;;;23.06;45.53;99377.31;8405070;28;20052;-73
2022/07/29 19:02:21;;;;;;;8.63;2.58;;;;;;;23.01;45.96;99377.69;8402525;28;20069;-72
2022/07/29 19:06:23;;;;;;;4.72;2.50;;;;;;;22.94;46.54;99374.91;8380146;28;20070;-73
2022/07/29 19:10:24;;;;;;;6.22;2.65;;;;;;;22.84;46.82;99372.09;8408570;28;20341;-73
2022/07/29 19:14:25;;;;;;;9.57;3.45;;;;;;;22.69;47.69;99371.16;8396325;28;20041;-73
2022/07/29 19:18:25;;;;;;;12.68;4.22;;;;;;;22.51;48.93;99370.25;8402269;28;20048;-73
2022/07/29 19:22:27;;;;;;;22.77;6.22;;;;;;;22.30;49.73;99371.66;8410310;28;20088;-73
2022/07/29 19:26:27;;;;;;;31.48;10.05;;;;;;;22.10;50.58;99366.78;8372432;28;20420;-73